Time;durP1;ratioP1;P1;durP2;ratioP2;P2;SDS_P1;SDS_P2;PMS_P1;PMS_P2;Temp;Humidity;BMP_temperature;BMP_pressure;BME280_temperature;BME280_humidity;BME280_pressure;Samples;Min_cycle;Max_cycle;Signal;HPM_P1;HPM_P2
2023/05/03 00:00:17;;;;;;;4.45;2.70;;;5.90;99.90;;;;;;5092556;28;20036;-83
2023/05/03 00:02:43;;;;;;;4.35;3.10;;;5.80;99.90;;;;;;5072735;28;20036;-84
2023/05/03 00:05:13;;;;;;;6.20;3.10;;;5.80;99.90;;;;;;5084617;28;20044;-81
2023/05/03 00:07:42;;;;;;;5.50;3.47;;;5.70;99.90;;;;;;5061712;28;20063;-83
2023/05/03 00:10:12;;;;;;;5.15;3.13;;;5.70;99.90;;;;;;5081403;28;20036;-81
2023/05/03 00:12:41;;;;;;;4.53;2.90;;;5.70;99.90;;;;;;5089615;28;20036;-82
2023/05/03 00:15:08;;;;;;;4.72;2.92;;;5.60;99.90;;;;;;5085385;28;20075;-83
2023/05/03 00:17:34;;;;;;;4.65;3.05;;;5.60;99.90;;;;;;5096368;28;20430;-82
2023/05/03 00:20:00;;;;;;;5.03;2.92;;;5.60;99.90;;;;;;5092256;28;20036;-81
2023/05/03 00:22:26;;;;;;;7.22;3.13;;;5.60;99.90;;;;;;5078115;28;20127;-83
2023/05/03 00:24:51;;;;;;;5.35;3.38;;;5.50;99.90;;;;;;5092495;28;20032;-82
2023/05/03 00:27:18;;;;;;;4.20;3.30;;;5.50;99.90;;;;;;5092048;28;20040;-81
2023/05/03 00:29:43;;;;;;;5.57;2.78;;;5.50;99.90;;;;;;5075421;28;20534;-82
2023/05/03 00:32:09;;;;;;;3.65;3.20;;;5.50;99.90;;;;;;5092342;28;20126;-82
2023/05/03 00:34:36;;;;;;;4.88;3.25;;;5.50;99.90;;;;;;5091408;28;20040;-82
2023/05/03 00:37:01;;;;;;;5.78;3.53;;;5.40;99.90;;;;;;5091473;28;20621;-81
2023/05/03 00:39:30;;;;;;;5.13;3.58;;;5.40;99.90;;;;;;5092292;28;20171;-82
2023/05/03 00:42:00;;;;;;;6.30;3.40;;;5.40;99.90;;;;;;5085162;28;20162;-82
2023/05/03 00:44:26;;;;;;;4.82;3.10;;;5.50;99.90;;;;;;5084997;28;20040;-82
2023/05/03 00:46:52;;;;;;;7.47;3.45;;;5.50;99.90;;;;;;5095662;28;20505;-83
2023/05/03 00:49:18;;;;;;;5.32;3.70;;;5.50;99.90;;;;;;5096363;28;20385;-81
2023/05/03 00:51:43;;;;;;;7.93;4.20;;;5.60;99.90;;;;;;5100274;28;20043;-81
2023/05/03 00:54:10;;;;;;;5.30;3.20;;;5.80;99.90;;;;;;5107358;28;20039;-82
2023/05/03 00:56:37;;;;;;;5.38;3.45;;;5.80;99.90;;;;;;5104343;28;20039;-81
2023/05/03 00:59:04;;;;;;;6.97;3.78;;;5.90;99.90;;;;;;5085384;28;20431;-81
2023/05/03 01:01:31;;;;;;;5.00;3.67;;;5.90;99.90;;;;;;5096947;28;20036;-83
2023/05/03 01:03:59;;;;;;;5.47;3.42;;;6.00;99.90;;;;;;5079673;28;20032;-81
2023/05/03 01:06:31;;;;;;;5.68;3.67;;;6.00;99.90;;;;;;5096073;28;20052;-82
2023/05/03 01:09:14;;;;;;;6.30;3.70;;;6.00;99.90;;;;;;5095723;28;20459;-81
2023/05/03 01:12:05;;;;;;;6.65;3.85;;;6.00;99.90;;;;;;5095727;28;20487;-82
2023/05/03 01:14:57;;;;;;;6.38;3.63;;;6.00;99.90;;;;;;5079085;28;20035;-82
2023/05/03 01:17:32;;;;;;;7.07;3.90;;;6.10;99.90;;;;;;5079849;28;20040;-82
2023/05/03 01:20:10;;;;;;;6.25;3.45;;;6.20;99.90;;;;;;5079426;28;20040;-82
2023/05/03 01:22:59;;;;;;;8.25;3.63;;;6.20;99.90;;;;;;5110611;28;20433;-82
2023/05/03 01:25:28;;;;;;;6.88;3.22;;;6.30;99.90;;;;;;5096175;28;20036;-82
2023/05/03 01:27:53;;;;;;;7.03;3.63;;;6.30;99.90;;;;;;5065074;28;20043;-81
2023/05/03 01:30:22;;;;;;;4.97;3.45;;;6.30;99.90;;;;;;5095475;28;20046;-82
2023/05/03 01:33:06;;;;;;;6.55;3.60;;;6.40;99.90;;;;;;5096534;28;20043;-82
2023/05/03 01:35:36;;;;;;;4.95;3.47;;;6.40;99.90;;;;;;5095265;28;20047;-81
2023/05/03 01:38:03;;;;;;;4.43;3.60;;;6.40;99.90;;;;;;5095292;28;20047;-81
2023/05/03 01:40:30;;;;;;;7.28;3.65;;;6.40;99.90;;;;;;5079061;28;20032;-82
2023/05/03 01:42:58;;;;;;;6.18;3.88;;;6.40;99.90;;;;;;5094779;28;20032;-81
2023/05/03 01:45:24;;;;;;;5.13;3.85;;;6.40;99.90;;;;;;5083008;28;20036;-82
2023/05/03 01:47:50;;;;;;;5.70;3.83;;;6.40;99.90;;;;;;5096861;28;20461;-82
2023/05/03 01:50:16;;;;;;;4.97;3.30;;;6.50;99.90;;;;;;5105149;28;20119;-82
2023/05/03 01:52:42;;;;;;;5.80;3.25;;;6.50;99.90;;;;;;5086741;28;20416;-83
2023/05/03 01:55:08;;;;;;;4.05;3.40;;;6.40;99.90;;;;;;5078886;28;20036;-83
2023/05/03 01:57:33;;;;;;;6.10;3.00;;;6.40;99.90;;;;;;5114243;28;20491;-82
2023/05/03 01:59:59;;;;;;;4.00;3.03;;;6.30;99.90;;;;;;5099012;28;20122;-82
2023/05/03 02:02:24;;;;;;;4.18;3.25;;;6.20;99.90;;;;;;5097940;28;20109;-82
2023/05/03 02:04:50;;;;;;;5.50;3.10;;;6.20;99.90;;;;;;5087688;28;20058;-82
2023/05/03 02:07:16;;;;;;;4.43;3.13;;;6.20;99.90;;;;;;5092350;28;20054;-83
2023/05/03 02:09:41;;;;;;;5.30;3.13;;;6.20;99.90;;;;;;5085518;28;20046;-82
2023/05/03 02:12:07;;;;;;;5.20;2.90;;;6.10;99.90;;;;;;5102451;28;20032;-82
2023/05/03 02:14:32;;;;;;;4.88;2.90;;;6.10;99.90;;;;;;5081707;28;20097;-83
2023/05/03 02:16:59;;;;;;;4.90;3.05;;;6.00;99.90;;;;;;5094736;28;20048;-82
2023/05/03 02:19:24;;;;;;;4.97;3.20;;;6.00;99.90;;;;;;5098065;28;20067;-82
2023/05/03 02:21:50;;;;;;;4.00;2.80;;;5.90;99.90;;;;;;5106700;28;20109;-82
2023/05/03 02:24:16;;;;;;;5.63;3.03;;;5.90;99.90;;;;;;5110396;28;20088;-82
2023/05/03 02:26:41;;;;;;;7.07;2.90;;;5.90;99.90;;;;;;5091328;28;20044;-82
2023/05/03 02:29:07;;;;;;;5.65;2.50;;;5.90;99.90;;;;;;5081719;28;20040;-82
2023/05/03 02:31:33;;;;;;;6.63;2.95;;;5.90;99.90;;;;;;5085126;28;20043;-82
2023/05/03 02:33:58;;;;;;;4.45;2.80;;;5.80;99.90;;;;;;5103791;28;20071;-82
2023/05/03 02:36:24;;;;;;;4.90;2.60;;;5.70;99.90;;;;;;5094927;28;20050;-82
2023/05/03 02:38:50;;;;;;;4.03;2.97;;;5.60;99.90;;;;;;5105255;28;20028;-83
2023/05/03 02:41:15;;;;;;;3.97;2.47;;;5.70;99.90;;;;;;5093701;28;20443;-82
2023/05/03 02:43:41;;;;;;;4.85;2.90;;;5.70;99.90;;;;;;5093689;28;20067;-81
2023/05/03 02:46:06;;;;;;;5.20;2.85;;;5.60;99.90;;;;;;5107853;28;20115;-83
2023/05/03 02:48:32;;;;;;;3.53;2.63;;;5.60;99.90;;;;;;5094165;28;20032;-82
2023/05/03 02:50:57;;;;;;;4.32;2.72;;;5.50;99.90;;;;;;5093450;28;20036;-82
2023/05/03 02:53:23;;;;;;;5.10;2.47;;;5.50;99.90;;;;;;5094163;28;20032;-82
2023/05/03 02:55:49;;;;;;;3.85;2.60;;;5.50;99.90;;;;;;5098870;28;20035;-82
2023/05/03 02:58:15;;;;;;;4.72;2.67;;;5.50;99.90;;;;;;5102722;28;20123;-82
2023/05/03 03:00:40;;;;;;;4.05;2.75;;;5.40;99.90;;;;;;5093421;28;20071;-82
2023/05/03 03:03:06;;;;;;;5.30;2.72;;;5.40;99.90;;;;;;5092935;28;20042;-83
2023/05/03 03:05:32;;;;;;;5.10;2.60;;;5.40;99.90;;;;;;5094363;28;20032;-82
2023/05/03 03:07:57;;;;;;;4.47;2.85;;;5.40;99.90;;;;;;5093174;28;20040;-82
2023/05/03 03:10:23;;;;;;;4.65;2.47;;;5.40;99.90;;;;;;5093263;28;20124;-82
2023/05/03 03:12:48;;;;;;;3.90;2.58;;;5.40;99.90;;;;;;5093428;28;20047;-82
2023/05/03 03:15:14;;;;;;;5.03;2.60;;;5.40;99.90;;;;;;5093315;28;20165;-82
2023/05/03 03:17:40;;;;;;;4.22;2.63;;;5.30;99.90;;;;;;5093347;28;20262;-82
2023/05/03 03:20:10;;;;;;;3.30;2.50;;;5.30;99.90;;;;;;5092615;28;20047;-82
2023/05/03 03:22:36;;;;;;;3.38;2.40;;;5.30;99.90;;;;;;5092743;28;20036;-82
2023/05/03 03:25:03;;;;;;;3.38;2.40;;;5.20;99.90;;;;;;5093093;28;20032;-82
2023/05/03 03:27:29;;;;;;;3.75;2.50;;;5.10;99.90;;;;;;5075956;28;20537;-82
2023/05/03 03:29:55;;;;;;;4.32;2.60;;;5.10;99.90;;;;;;5092256;28;20119;-82
2023/05/03 03:32:20;;;;;;;5.18;2.60;;;5.10;99.90;;;;;;5063879;28;20036;-82
2023/05/03 03:34:46;;;;;;;4.07;2.40;;;5.10;99.90;;;;;;5075385;28;20123;-82
2023/05/03 03:37:11;;;;;;;3.45;2.60;;;5.00;99.90;;;;;;5092233;28;20040;-82
2023/05/03 03:39:38;;;;;;;6.22;2.40;;;5.10;99.90;;;;;;5093347;28;20040;-83
2023/05/03 03:42:05;;;;;;;3.42;2.22;;;5.00;99.90;;;;;;5109483;28;20040;-82
2023/05/03 03:44:30;;;;;;;2.67;2.17;;;5.10;99.90;;;;;;5078157;28;20044;-82
2023/05/03 03:46:56;;;;;;;3.58;2.53;;;5.00;99.90;;;;;;5055150;28;20191;-83
2023/05/03 03:49:21;;;;;;;3.92;2.42;;;5.00;99.90;;;;;;5083495;28;20614;-82
2023/05/03 03:51:47;;;;;;;4.38;2.45;;;5.00;99.90;;;;;;5092405;28;20046;-82
2023/05/03 03:54:13;;;;;;;4.25;2.60;;;5.00;99.90;;;;;;5092359;28;20427;-82
2023/05/03 03:56:38;;;;;;;4.07;2.88;;;5.10;99.90;;;;;;5100702;28;20067;-82
2023/05/03 03:59:04;;;;;;;3.63;2.45;;;5.20;99.90;;;;;;5094088;28;20085;-82
2023/05/03 04:01:30;;;;;;;3.13;2.67;;;5.10;99.90;;;;;;5091446;28;20036;-83
2023/05/03 04:03:55;;;;;;;3.70;2.63;;;5.10;99.90;;;;;;5091761;28;20036;-82
2023/05/03 04:06:21;;;;;;;5.22;2.53;;;5.10;99.90;;;;;;5091614;28;20085;-82
2023/05/03 04:08:46;;;;;;;4.90;2.35;;;5.10;99.90;;;;;;5091452;28;20332;-82
2023/05/03 04:11:12;;;;;;;3.25;2.30;;;5.10;99.90;;;;;;5091780;28;20564;-82
2023/05/03 04:13:38;;;;;;;3.97;2.50;;;5.10;99.90;;;;;;5091513;28;20040;-82
2023/05/03 04:16:05;;;;;;;3.20;2.72;;;5.10;99.90;;;;;;5091792;28;20028;-83
2023/05/03 04:18:31;;;;;;;3.08;2.22;;;5.20;99.90;;;;;;5091703;28;20040;-82
2023/05/03 04:20:56;;;;;;;3.25;2.40;;;5.20;99.90;;;;;;5091014;28;20044;-82
2023/05/03 04:23:22;;;;;;;5.05;2.60;;;5.10;99.90;;;;;;5091525;28;20459;-82
2023/05/03 04:25:47;;;;;;;3.88;2.40;;;5.20;99.90;;;;;;5091422;28;20068;-83
2023/05/03 04:28:14;;;;;;;2.97;2.20;;;5.20;99.90;;;;;;5090752;28;20040;-82
2023/05/03 04:30:41;;;;;;;3.22;2.42;;;5.10;99.90;;;;;;5091216;28;20044;-83
2023/05/03 04:33:08;;;;;;;4.75;2.60;;;5.20;99.90;;;;;;5106239;28;20113;-83
2023/05/03 04:35:34;;;;;;;6.63;2.90;;;5.20;99.90;;;;;;5075113;28;20040;-82
2023/05/03 04:38:00;;;;;;;2.47;2.00;;;5.20;99.90;;;;;;5091003;28;20044;-84
2023/05/03 04:40:25;;;;;;;3.47;2.40;;;5.30;99.90;;;;;;5091362;28;20101;-83
2023/05/03 04:42:51;;;;;;;4.35;2.85;;;5.30;99.90;;;;;;5091187;28;20036;-82
2023/05/03 04:45:17;;;;;;;4.50;2.70;;;5.40;99.90;;;;;;5074572;28;20040;-82
2023/05/03 04:47:43;;;;;;;4.30;2.78;;;5.40;99.90;;;;;;5091543;28;20136;-82
2023/05/03 04:50:09;;;;;;;4.97;2.80;;;5.50;99.90;;;;;;5090905;28;20071;-83
2023/05/03 04:52:35;;;;;;;4.80;2.80;;;5.60;99.90;;;;;;5091733;28;20503;-83
2023/05/03 04:55:01;;;;;;;3.13;2.28;;;5.60;99.90;;;;;;5091501;28;20089;-83
2023/05/03 04:57:27;;;;;;;3.40;2.53;;;5.70;99.90;;;;;;5105409;28;20435;-83
2023/05/03 04:59:52;;;;;;;5.20;2.80;;;5.80;99.90;;;;;;5092017;28;20071;-82
2023/05/03 05:02:18;;;;;;;3.88;2.67;;;5.80;99.90;;;;;;5092681;28;20058;-82
2023/05/03 05:04:44;;;;;;;3.72;2.65;;;5.80;99.90;;;;;;5092536;28;20093;-82
2023/05/03 05:07:11;;;;;;;4.65;2.70;;;6.00;99.90;;;;;;5092262;28;20050;-82
2023/05/03 05:09:37;;;;;;;3.70;2.83;;;6.10;99.90;;;;;;5091845;28;20040;-82
2023/05/03 05:12:03;;;;;;;3.20;2.80;;;6.10;99.90;;;;;;5092067;28;20048;-82
2023/05/03 05:14:30;;;;;;;6.60;2.97;;;6.20;99.90;;;;;;5091676;28;20411;-82
2023/05/03 05:16:55;;;;;;;3.42;2.75;;;6.30;99.90;;;;;;5092264;28;20044;-82
2023/05/03 05:19:21;;;;;;;4.15;2.33;;;6.40;99.90;;;;;;5070623;28;20055;-83
2023/05/03 05:21:47;;;;;;;2.70;1.80;;;6.40;99.90;;;;;;5078687;28;20377;-83
2023/05/03 05:24:12;;;;;;;7.25;2.15;;;6.50;99.90;;;;;;5089874;28;20097;-83
2023/05/03 05:26:38;;;;;;;6.22;2.00;;;6.60;99.90;;;;;;5090702;28;20526;-83
2023/05/03 05:29:04;;;;;;;3.45;1.52;;;6.60;99.90;;;;;;5090744;28;20036;-83
2023/05/03 05:31:30;;;;;;;2.92;1.60;;;6.70;99.90;;;;;;5091283;28;20039;-83
2023/05/03 05:33:56;;;;;;;3.33;1.67;;;6.80;99.90;;;;;;5094189;28;20119;-83
2023/05/03 05:36:21;;;;;;;1.85;1.48;;;6.90;99.90;;;;;;5096291;28;20392;-82
2023/05/03 05:38:47;;;;;;;4.15;1.73;;;7.00;99.90;;;;;;5087735;28;20175;-83
2023/05/03 05:41:12;;;;;;;2.65;1.42;;;7.10;99.90;;;;;;5090500;28;20040;-82
2023/05/03 05:43:38;;;;;;;2.63;1.20;;;7.10;99.90;;;;;;5095021;28;20032;-83
2023/05/03 05:46:03;;;;;;;3.85;1.77;;;7.20;99.90;;;;;;5065131;28;20048;-83
2023/05/03 05:48:29;;;;;;;2.65;1.42;;;7.30;99.90;;;;;;5075090;28;20514;-83
2023/05/03 05:50:55;;;;;;;2.42;1.70;;;7.30;99.90;;;;;;5085258;28;20044;-83
2023/05/03 05:53:20;;;;;;;3.65;1.50;;;7.40;99.90;;;;;;5094368;28;20043;-82
2023/05/03 05:55:46;;;;;;;2.65;1.60;;;7.50;99.90;;;;;;5098836;28;20051;-82
2023/05/03 05:58:12;;;;;;;3.53;1.63;;;7.50;99.90;;;;;;5103882;28;20081;-82
2023/05/03 06:00:38;;;;;;;2.33;1.40;;;7.60;99.90;;;;;;5095283;28;20050;-82
2023/05/03 06:03:04;;;;;;;3.20;1.30;;;7.60;99.90;;;;;;5094766;28;20100;-82
2023/05/03 06:05:30;;;;;;;3.72;1.30;;;7.70;99.90;;;;;;5096820;28;20040;-82
2023/05/03 06:07:55;;;;;;;2.65;1.27;;;7.80;99.90;;;;;;5096887;28;20059;-82
2023/05/03 06:10:21;;;;;;;3.88;1.20;;;7.90;99.90;;;;;;5100342;28;20124;-82
2023/05/03 06:12:47;;;;;;;3.25;1.23;;;8.00;99.90;;;;;;5095174;28;20040;-82
2023/05/03 06:15:13;;;;;;;2.95;1.40;;;8.10;99.90;;;;;;5096838;28;20067;-82
2023/05/03 06:17:38;;;;;;;2.22;1.20;;;8.20;99.90;;;;;;5095351;28;20040;-82
2023/05/03 06:20:04;;;;;;;2.55;1.20;;;8.20;99.90;;;;;;5094436;28;20040;-82
2023/05/03 06:22:30;;;;;;;2.63;1.30;;;8.30;99.90;;;;;;5095604;28;20560;-82
2023/05/03 06:24:56;;;;;;;2.30;1.27;;;8.40;99.90;;;;;;5095361;28;20036;-81
2023/05/03 06:27:22;;;;;;;3.25;1.30;;;8.50;99.90;;;;;;5078528;28;20051;-81
2023/05/03 06:29:48;;;;;;;2.83;1.65;;;8.50;99.90;;;;;;5096348;28;20402;-81
2023/05/03 06:32:14;;;;;;;4.75;1.65;;;8.60;99.90;;;;;;5097419;28;20063;-81
2023/05/03 06:34:40;;;;;;;2.47;1.40;;;8.60;99.90;;;;;;5099089;28;20427;-81
2023/05/03 06:37:05;;;;;;;3.03;1.45;;;8.60;99.90;;;;;;5097032;28;20036;-82
2023/05/03 06:39:31;;;;;;;3.40;1.13;;;8.70;99.90;;;;;;5063755;28;20626;-81
2023/05/03 06:41:56;;;;;;;3.85;1.20;;;8.80;99.90;;;;;;5066782;28;20043;-82
2023/05/03 06:44:22;;;;;;;2.25;1.00;;;8.90;99.90;;;;;;5096950;28;20048;-82
2023/05/03 06:46:48;;;;;;;2.53;1.10;;;8.90;99.90;;;;;;5095608;28;20039;-81
2023/05/03 06:49:13;;;;;;;2.33;1.10;;;9.00;99.90;;;;;;5079012;28;20511;-82
2023/05/03 06:51:39;;;;;;;2.90;1.50;;;9.10;99.90;;;;;;5094612;28;20471;-81
2023/05/03 06:54:08;;;;;;;2.33;1.00;;;9.10;99.90;;;;;;5086117;28;20082;-81
2023/05/03 06:56:35;;;;;;;3.25;1.02;;;9.20;99.90;;;;;;5098996;28;20054;-81
2023/05/03 06:59:01;;;;;;;2.28;1.00;;;9.20;99.90;;;;;;5095998;28;20070;-81
2023/05/03 07:01:27;;;;;;;1.35;1.02;;;9.30;99.90;;;;;;5095311;28;20040;-81
2023/05/03 07:03:52;;;;;;;2.72;0.90;;;9.30;99.90;;;;;;5094237;28;20036;-81
2023/05/03 07:06:18;;;;;;;2.25;1.00;;;9.40;99.90;;;;;;5093324;28;20032;-80
2023/05/03 07:08:44;;;;;;;1.50;0.90;;;9.40;99.90;;;;;;5077981;28;20078;-81
2023/05/03 07:11:10;;;;;;;3.88;0.98;;;9.50;99.90;;;;;;5093019;28;20028;-81
2023/05/03 07:13:35;;;;;;;3.58;1.00;;;9.60;99.90;;;;;;5094427;28;20067;-81
2023/05/03 07:16:01;;;;;;;4.90;0.98;;;9.60;99.90;;;;;;5093528;28;20031;-80
2023/05/03 07:18:27;;;;;;;1.70;0.98;;;9.60;99.90;;;;;;5093313;28;20507;-81
2023/05/03 07:20:52;;;;;;;2.45;1.08;;;9.60;99.90;;;;;;5093311;28;20031;-81
2023/05/03 07:23:18;;;;;;;3.60;1.30;;;9.70;99.90;;;;;;5096279;28;20036;-81
2023/05/03 07:25:44;;;;;;;4.13;1.20;;;9.70;99.90;;;;;;5096797;28;20036;-81
2023/05/03 07:28:10;;;;;;;5.43;1.30;;;9.70;99.90;;;;;;5097413;28;20044;-81
2023/05/03 07:30:36;;;;;;;2.40;1.10;;;9.80;99.90;;;;;;5093393;28;20120;-80
2023/05/03 07:33:02;;;;;;;1.77;0.90;;;9.90;99.90;;;;;;5079279;28;20043;-81
2023/05/03 07:35:28;;;;;;;3.90;1.10;;;9.90;99.90;;;;;;5100061;28;20549;-80
2023/05/03 07:37:55;;;;;;;3.53;1.00;;;10.00;99.90;;;;;;5081898;28;20046;-80
2023/05/03 07:40:21;;;;;;;3.90;1.40;;;9.90;99.90;;;;;;5089995;28;20044;-81
2023/05/03 07:42:46;;;;;;;2.20;1.10;;;10.00;99.90;;;;;;5092199;28;20117;-81
2023/05/03 07:45:12;;;;;;;2.85;1.00;;;10.10;99.90;;;;;;5094881;28;20081;-80
2023/05/03 07:47:38;;;;;;;3.47;1.27;;;10.20;99.90;;;;;;5093275;28;20036;-80
2023/05/03 07:50:05;;;;;;;2.53;1.10;;;10.20;99.90;;;;;;5095693;28;20110;-80
2023/05/03 07:52:35;;;;;;;3.10;1.13;;;10.30;99.90;;;;;;5095556;28;20047;-80
2023/05/03 07:55:02;;;;;;;1.40;0.77;;;10.30;99.90;;;;;;5093380;28;20044;-80
2023/05/03 07:57:28;;;;;;;2.10;0.90;;;10.30;99.90;;;;;;5108700;28;20047;-80
2023/05/03 07:59:54;;;;;;;3.67;0.90;;;10.30;99.90;;;;;;5093735;28;20036;-80
2023/05/03 08:02:20;;;;;;;2.15;1.10;;;10.40;99.90;;;;;;5064307;28;20047;-80
2023/05/03 08:04:46;;;;;;;1.83;0.90;;;10.40;99.90;;;;;;5093388;28;20032;-80
2023/05/03 08:07:11;;;;;;;4.30;1.10;;;10.30;99.90;;;;;;5094474;28;20040;-80
2023/05/03 08:09:37;;;;;;;4.68;1.05;;;10.30;99.90;;;;;;5094327;28;20050;-80
2023/05/03 08:12:03;;;;;;;3.08;1.10;;;10.20;99.90;;;;;;5091469;28;20040;-80
2023/05/03 08:14:28;;;;;;;4.50;1.20;;;10.20;99.90;;;;;;5091388;28;20078;-80
2023/05/03 08:16:54;;;;;;;2.47;1.25;;;10.30;99.90;;;;;;5090961;28;20040;-80
2023/05/03 08:19:19;;;;;;;3.05;1.20;;;10.30;99.90;;;;;;5092780;28;20039;-80
2023/05/03 08:21:48;;;;;;;3.28;1.10;;;10.40;99.90;;;;;;5093222;28;20480;-80
2023/05/03 08:24:13;;;;;;;2.72;1.20;;;10.50;99.90;;;;;;5091164;28;20058;-79
2023/05/03 08:26:39;;;;;;;2.05;1.00;;;10.50;99.90;;;;;;5090518;28;20040;-80
2023/05/03 08:29:06;;;;;;;1.98;0.63;;;10.50;99.90;;;;;;5091170;28;20089;-80
2023/05/03 08:31:31;;;;;;;1.95;0.80;;;10.60;99.90;;;;;;5091618;28;20321;-80
2023/05/03 08:33:57;;;;;;;2.58;0.90;;;10.60;99.90;;;;;;5091541;28;20040;-80
2023/05/03 08:36:22;;;;;;;1.95;1.00;;;10.70;99.90;;;;;;5091228;28;20048;-80
2023/05/03 08:38:49;;;;;;;2.75;0.90;;;10.70;99.90;;;;;;5092237;28;20036;-80
2023/05/03 08:41:28;;;;;;;1.63;0.85;;;10.80;99.90;;;;;;5092426;28;20097;-80
2023/05/03 08:43:55;;;;;;;1.80;0.70;;;10.80;99.90;;;;;;5093102;28;20043;-80
2023/05/03 08:46:21;;;;;;;2.40;0.98;;;10.70;99.90;;;;;;5092089;28;20074;-79
2023/05/03 08:48:48;;;;;;;1.88;0.85;;;10.70;99.90;;;;;;5066685;28;20032;-80
2023/05/03 08:51:15;;;;;;;3.90;1.00;;;10.80;99.90;;;;;;5085796;28;20067;-80
2023/05/03 08:53:40;;;;;;;1.88;0.80;;;10.80;99.90;;;;;;5090349;28;20177;-80
2023/05/03 08:56:07;;;;;;;2.60;0.95;;;10.90;99.90;;;;;;5100315;28;20454;-80
2023/05/03 08:58:37;;;;;;;3.60;0.90;;;10.90;99.90;;;;;;5096920;28;20051;-79
2023/05/03 09:01:07;;;;;;;2.58;1.00;;;11.00;99.90;;;;;;5089852;28;20110;-80
2023/05/03 09:03:33;;;;;;;2.10;1.05;;;11.10;99.90;;;;;;5090259;28;20499;-78
2023/05/03 09:06:02;;;;;;;3.90;1.13;;;11.20;99.90;;;;;;5090553;28;20059;-79
2023/05/03 09:08:29;;;;;;;2.17;0.90;;;11.20;99.90;;;;;;5093895;28;20040;-80
2023/05/03 09:10:56;;;;;;;3.50;0.93;;;11.20;99.90;;;;;;5093418;28;20507;-77
2023/05/03 09:13:30;;;;;;;3.30;1.10;;;11.30;99.90;;;;;;5093994;28;20126;-76
2023/05/03 09:15:56;;;;;;;3.20;1.10;;;11.40;99.90;;;;;;5076447;28;20032;-79
2023/05/03 09:18:23;;;;;;;2.25;1.05;;;11.40;99.90;;;;;;5076441;28;20480;-80
2023/05/03 09:20:53;;;;;;;3.35;0.95;;;11.40;99.90;;;;;;5093609;28;20043;-79
2023/05/03 09:23:29;;;;;;;3.55;1.23;;;11.50;99.90;;;;;;5094062;28;20036;-79
2023/05/03 09:25:56;;;;;;;2.75;1.27;;;11.50;99.90;;;;;;5079312;28;20041;-79
2023/05/03 09:28:21;;;;;;;5.75;1.20;;;11.60;99.90;;;;;;5110190;28;20028;-80
2023/05/03 09:30:48;;;;;;;4.15;1.10;;;11.50;99.90;;;;;;5094257;28;20106;-80
2023/05/03 09:33:21;;;;;;;3.58;1.25;;;11.60;99.90;;;;;;5093134;28;20039;-76
2023/05/03 09:35:57;;;;;;;3.15;1.40;;;11.60;99.90;;;;;;5076006;28;20083;-77
2023/05/03 09:38:27;;;;;;;2.90;1.23;;;11.70;99.90;;;;;;5092391;28;20036;-76
2023/05/03 09:40:52;;;;;;;3.53;1.35;;;11.70;99.90;;;;;;5092991;28;20108;-78
2023/05/03 09:43:18;;;;;;;2.05;1.02;;;11.90;99.90;;;;;;5092513;28;20040;-77
2023/05/03 09:45:44;;;;;;;2.83;1.20;;;12.00;99.90;;;;;;5092661;28;20081;-76
2023/05/03 09:48:11;;;;;;;3.20;1.10;;;12.20;99.90;;;;;;5092560;28;20119;-75
2023/05/03 09:50:37;;;;;;;3.40;1.23;;;12.30;99.90;;;;;;5092671;28;20093;-76
2023/05/03 09:53:05;;;;;;;3.28;1.40;;;12.30;99.90;;;;;;5092420;28;20044;-78
2023/05/03 09:55:38;;;;;;;4.88;1.60;;;12.30;99.90;;;;;;5094850;28;20063;-77
2023/05/03 09:58:05;;;;;;;2.65;1.23;;;12.40;99.90;;;;;;5085957;28;20036;-77
2023/05/03 10:00:35;;;;;;;4.25;1.13;;;12.40;99.90;;;;;;5075428;28;20028;-78
2023/05/03 10:03:04;;;;;;;2.15;1.20;;;12.40;99.90;;;;;;5092473;28;20157;-77
2023/05/03 10:05:33;;;;;;;4.40;1.35;;;12.50;99.90;;;;;;5092483;28;20063;-79
2023/05/03 10:08:02;;;;;;;3.00;1.45;;;12.50;99.90;;;;;;5092370;28;20128;-77
2023/05/03 10:10:31;;;;;;;4.40;1.92;;;12.50;99.90;;;;;;5062121;28;20037;-79
2023/05/03 10:12:58;;;;;;;2.20;1.35;;;12.70;99.90;;;;;;5093565;28;20036;-79
2023/05/03 10:15:26;;;;;;;2.85;1.33;;;12.80;99.90;;;;;;5096368;28;20043;-80
2023/05/03 10:17:55;;;;;;;3.13;1.40;;;12.50;99.90;;;;;;5094484;28;20124;-79
2023/05/03 10:20:32;;;;;;;7.82;1.48;;;12.60;99.90;;;;;;5092315;28;20499;-79
2023/05/03 10:23:03;;;;;;;6.03;1.70;;;13.00;99.90;;;;;;5057414;28;20063;-78
2023/05/03 10:25:30;;;;;;;2.17;1.33;;;13.40;99.90;;;;;;5084084;28;20123;-79
2023/05/03 10:28:08;;;;;;;2.10;1.30;;;13.60;99.90;;;;;;5097797;28;20040;-80
2023/05/03 10:30:38;;;;;;;2.78;1.38;;;13.50;99.90;;;;;;5093772;28;20044;-79
2023/05/03 10:33:12;;;;;;;4.32;1.40;;;13.50;99.90;;;;;;5075878;28;20075;-79
2023/05/03 10:35:39;;;;;;;3.13;1.15;;;13.50;99.90;;;;;;5095633;28;20112;-81
2023/05/03 10:38:25;;;;;;;3.33;1.30;;;13.50;99.90;;;;;;5080323;28;20044;-78
2023/05/03 10:40:52;;;;;;;3.78;1.30;;;13.40;99.90;;;;;;5109868;28;20071;-79
2023/05/03 10:43:32;;;;;;;3.97;1.40;;;13.40;99.90;;;;;;5095997;28;20119;-80
2023/05/03 10:45:59;;;;;;;4.20;1.20;;;13.30;99.90;;;;;;5100017;28;20044;-80
2023/05/03 10:48:25;;;;;;;4.82;1.35;;;13.40;99.90;;;;;;5093575;28;20410;-79
2023/05/03 10:50:51;;;;;;;4.75;1.40;;;13.60;99.90;;;;;;5091930;28;20036;-79
2023/05/03 10:53:35;;;;;;;3.45;1.50;;;13.60;99.90;;;;;;5095641;28;20044;-83
2023/05/03 10:56:08;;;;;;;4.35;1.88;;;13.60;99.90;;;;;;5100189;28;20043;-80
2023/05/03 10:58:38;;;;;;;2.45;1.17;;;13.70;99.90;;;;;;5098817;28;20070;-80
2023/05/03 11:01:05;;;;;;;3.78;1.30;;;13.70;99.90;;;;;;5092433;28;20503;-80
2023/05/03 11:03:43;;;;;;;3.28;1.42;;;13.70;99.90;;;;;;5078403;28;20036;-81
2023/05/03 11:06:09;;;;;;;4.93;1.65;;;13.80;99.90;;;;;;5092932;28;20066;-80
2023/05/03 11:08:37;;;;;;;2.10;1.55;;;14.20;99.90;;;;;;5093074;28;20048;-81
2023/05/03 11:11:08;;;;;;;6.05;1.50;;;14.40;99.90;;;;;;5092349;28;20085;-80
2023/05/03 11:13:35;;;;;;;3.60;1.58;;;14.60;99.90;;;;;;5094313;28;20411;-80
2023/05/03 11:16:03;;;;;;;5.57;1.60;;;14.60;99.90;;;;;;5094213;28;20032;-80
2023/05/03 11:18:29;;;;;;;2.42;1.13;;;14.50;99.90;;;;;;5092051;28;20081;-81
2023/05/03 11:20:55;;;;;;;2.92;1.40;;;14.50;99.90;;;;;;5092672;28;20028;-81
2023/05/03 11:23:27;;;;;;;3.53;1.13;;;14.50;99.90;;;;;;5094576;28;20093;-81
2023/05/03 11:25:52;;;;;;;2.15;1.33;;;14.40;99.90;;;;;;5091882;28;20059;-79
2023/05/03 11:28:18;;;;;;;4.32;1.50;;;14.30;99.90;;;;;;5092150;28;20040;-80
2023/05/03 11:30:45;;;;;;;2.88;1.40;;;14.30;99.90;;;;;;5093312;28;20039;-81
2023/05/03 11:33:11;;;;;;;5.32;1.20;;;14.20;99.90;;;;;;5093576;28;20032;-81
2023/05/03 11:35:37;;;;;;;4.70;1.58;;;14.20;99.90;;;;;;5079018;28;20093;-83
2023/05/03 11:38:03;;;;;;;5.18;1.83;;;14.10;99.90;;;;;;5097366;28;20122;-81
2023/05/03 11:40:29;;;;;;;5.35;1.40;;;14.10;99.90;;;;;;5099475;28;20082;-80
2023/05/03 11:42:58;;;;;;;2.30;1.20;;;14.70;99.90;;;;;;5060547;28;20036;-78
2023/05/03 11:45:30;;;;;;;2.35;1.40;;;15.00;99.90;;;;;;5092198;28;20383;-79
2023/05/03 11:47:56;;;;;;;3.75;1.27;;;14.90;99.90;;;;;;5091683;28;20066;-80
2023/05/03 11:50:45;;;;;;;5.55;1.35;;;14.90;99.90;;;;;;5076954;28;20058;-79
2023/05/03 11:53:12;;;;;;;5.00;1.42;;;14.80;99.90;;;;;;5092530;28;20120;-80
2023/05/03 11:55:42;;;;;;;3.90;1.55;;;14.80;99.90;;;;;;5095088;28;20084;-80
2023/05/03 11:58:17;;;;;;;3.95;1.30;;;14.70;99.90;;;;;;5103841;28;20133;-80
2023/05/03 12:00:44;;;;;;;3.22;1.45;;;14.80;99.90;;;;;;5094503;28;20068;-79
2023/05/03 12:03:14;;;;;;;2.65;1.30;;;14.80;99.90;;;;;;5091431;28;20059;-78
2023/05/03 12:05:40;;;;;;;3.90;1.60;;;15.00;99.90;;;;;;5091560;28;20040;-80
2023/05/03 12:08:05;;;;;;;3.00;1.40;;;15.00;99.90;;;;;;5067241;28;20507;-80
2023/05/03 12:10:32;;;;;;;3.83;1.60;;;15.20;99.90;;;;;;5084434;28;20054;-79
2023/05/03 12:12:58;;;;;;;3.10;1.30;;;15.10;99.90;;;;;;5095026;28;20527;-80
2023/05/03 12:15:44;;;;;;;2.85;1.25;;;15.50;99.90;;;;;;5097119;28;20032;-80
2023/05/03 12:18:11;;;;;;;2.65;1.17;;;15.60;99.90;;;;;;5092216;28;20063;-81
2023/05/03 12:20:38;;;;;;;3.72;1.40;;;16.00;99.90;;;;;;5091683;28;20084;-78
2023/05/03 12:23:06;;;;;;;5.03;1.45;;;16.60;99.90;;;;;;5092462;28;20032;-79
2023/05/03 12:25:32;;;;;;;2.63;1.58;;;16.90;99.90;;;;;;5091305;28;20107;-81
2023/05/03 12:28:01;;;;;;;2.53;1.50;;;16.70;99.90;;;;;;5092500;28;20071;-79
2023/05/03 12:30:27;;;;;;;6.90;1.70;;;16.50;99.90;;;;;;5091042;28;20437;-79
2023/05/03 12:32:53;;;;;;;5.40;1.55;;;16.60;99.90;;;;;;5091349;28;20047;-79
2023/05/03 12:35:19;;;;;;;3.55;1.60;;;16.90;99.90;;;;;;5093106;28;20048;-80
2023/05/03 12:37:45;;;;;;;3.50;1.55;;;16.90;99.90;;;;;;5093092;28;20040;-81
2023/05/03 12:40:12;;;;;;;3.45;1.50;;;16.90;99.90;;;;;;5090869;28;20047;-79
2023/05/03 12:42:38;;;;;;;4.63;1.90;;;17.00;99.90;;;;;;5095797;28;20048;-79
2023/05/03 12:45:04;;;;;;;2.75;1.42;;;16.40;99.90;;;;;;5094890;28;20032;-82
2023/05/03 12:47:30;;;;;;;3.80;1.50;;;16.20;99.90;;;;;;5094681;28;20055;-80
2023/05/03 12:49:55;;;;;;;4.40;1.50;;;16.20;99.90;;;;;;5078475;28;20482;-80
2023/05/03 12:52:21;;;;;;;4.03;1.65;;;16.40;99.90;;;;;;5095089;28;20072;-81